createdAt,value
2022-11-24T00:02:51.989Z,97372.19
2022-11-24T00:07:56.688Z,97369.50
2022-11-24T00:13:02.434Z,97370.59
2022-11-24T00:18:06.145Z,97358.72
2022-11-24T00:23:11.211Z,97358.97
2022-11-24T00:28:14.916Z,97342.19
2022-11-24T00:33:18.240Z,97337.34
2022-11-24T00:38:21.538Z,97345.69
2022-11-24T00:43:25.042Z,97339.50
2022-11-24T00:48:28.697Z,97331.09
2022-11-24T00:53:32.427Z,97330.00
2022-11-24T00:58:39.391Z,97325.44
2022-11-24T01:03:43.235Z,97334.06
2022-11-24T01:08:47.364Z,97337.06
2022-11-24T01:13:56.887Z,97330.56
2022-11-24T01:19:01.467Z,97330.31
2022-11-24T01:24:05.570Z,97327.88
2022-11-24T01:29:11.586Z,97314.63
2022-11-24T01:34:14.985Z,97326.78
2022-11-24T01:39:18.437Z,97318.41
2022-11-24T01:44:28.820Z,97320.84
2022-11-24T01:49:41.408Z,97307.59
2022-11-24T01:54:50.494Z,97297.31
2022-11-24T02:00:02.767Z,97302.16
2022-11-24T02:05:28.593Z,97279.44
2022-11-24T02:10:32.067Z,97284.59
2022-11-24T02:15:36.039Z,97294.84
2022-11-24T02:20:39.555Z,97289.44
2022-11-24T02:25:58.381Z,97295.94
2022-11-24T02:31:02.687Z,97295.66
2022-11-24T02:36:06.462Z,97298.38
2022-11-24T02:41:14.386Z,97308.41
2022-11-24T02:46:17.932Z,97307.56
2022-11-24T02:51:21.357Z,97301.66
2022-11-24T02:56:28.494Z,97301.38
2022-11-24T03:01:32.071Z,97300.56
2022-11-24T03:06:36.475Z,97292.72
2022-11-24T03:11:39.859Z,97288.38
2022-11-24T03:16:43.604Z,97302.94
2022-11-24T03:21:46.970Z,97298.84
2022-11-24T03:26:50.685Z,97280.47
2022-11-24T03:31:54.520Z,97278.59
2022-11-24T03:37:04.350Z,97282.59
2022-11-24T03:42:07.622Z,97294.25
2022-11-24T03:47:12.198Z,97299.09
2022-11-24T03:52:15.508Z,97296.69
2022-11-24T03:57:18.905Z,97311.03
2022-11-24T04:02:22.474Z,97329.16
2022-11-24T04:07:25.833Z,97327.53
2022-11-24T04:12:29.242Z,97336.44
2022-11-24T04:17:32.534Z,97345.38
2022-11-24T04:22:35.936Z,97339.72
2022-11-24T04:27:40.537Z,97331.31
2022-11-24T04:32:44.236Z,97336.47
2022-11-24T04:37:50.227Z,97330.56
2022-11-24T04:42:54.988Z,97326.22
2022-11-24T04:47:58.652Z,97328.41
2022-11-24T04:53:03.610Z,97329.75
2022-11-24T04:58:13.590Z,97323.25
2022-11-24T05:03:18.245Z,97331.38
2022-11-24T05:08:21.673Z,97331.66
2022-11-24T05:13:24.980Z,97341.09
2022-11-24T05:18:28.423Z,97345.16
2022-11-24T05:23:31.867Z,97337.06
2022-11-24T05:28:35.259Z,97342.72
2022-11-24T05:33:39.959Z,97346.53
2022-11-24T05:38:43.198Z,97359.78
2022-11-24T05:43:46.765Z,97350.84
2022-11-24T05:48:51.464Z,97350.31
2022-11-24T05:53:55.698Z,97363.28
2022-11-24T05:58:59.251Z,97361.09
2022-11-24T06:04:02.808Z,97368.84
2022-11-24T06:09:06.216Z,97379.91
2022-11-24T06:14:11.472Z,97394.47
2022-11-24T06:19:15.154Z,97394.47
2022-11-24T06:24:18.662Z,97400.66
2022-11-24T06:29:21.919Z,97411.47
2022-11-24T06:34:25.297Z,97395.38
2022-11-24T06:39:29.155Z,97386.34
2022-11-24T06:44:37.122Z,97392.59
2022-11-24T06:49:41.114Z,97382.22
2022-11-24T06:54:44.498Z,97385.41
2022-11-24T06:59:47.844Z,97382.19
2022-11-24T07:04:54.956Z,97390.34
2022-11-24T07:09:58.617Z,97399.63
2022-11-24T07:15:02.445Z,97391.94
2022-11-24T07:20:08.361Z,97375.91
2022-11-24T07:25:11.681Z,97401.63
2022-11-24T07:30:15.778Z,97400.03
2022-11-24T07:35:19.214Z,97389.19
2022-11-24T07:40:23.269Z,97406.00
2022-11-24T07:45:26.775Z,97406.19
2022-11-24T07:50:30.421Z,97393.94
2022-11-24T07:55:33.752Z,97400.84
2022-11-24T08:00:37.139Z,97399.22
2022-11-24T08:06:00.710Z,97390.81
2022-11-24T08:11:08.918Z,97388.97
2022-11-24T08:16:18.233Z,97380.34
2022-11-24T08:21:23.459Z,97373.50
2022-11-24T08:26:31.152Z,97372.06
2022-11-24T08:31:35.945Z,97367.94
2022-11-24T08:36:39.398Z,97356.19
2022-11-24T08:41:43.465Z,97361.63
2022-11-24T08:46:46.867Z,97352.16
2022-11-24T08:51:50.270Z,97360.66
2022-11-24T08:56:53.661Z,97347.97
2022-11-24T09:01:57.313Z,97353.16
2022-11-24T09:07:01.110Z,97337.44
2022-11-24T09:12:05.826Z,97330.63
2022-11-24T09:17:12.397Z,97325.47
2022-11-24T09:22:17.272Z,97311.88
2022-11-24T09:27:20.613Z,97314.84
2022-11-24T09:32:24.056Z,97313.03
2022-11-24T09:37:32.435Z,97303.03
2022-11-24T09:42:58.383Z,97295.81
2022-11-24T09:48:21.790Z,97295.44
2022-11-24T09:53:37.143Z,97285.66
2022-11-24T09:59:07.494Z,97273.75
2022-11-24T10:04:24.047Z,97264.38
2022-11-24T10:09:44.768Z,97254.59
2022-11-24T10:15:20.087Z,97244.22
2022-11-24T10:20:41.800Z,97238.13
2022-11-24T10:26:29.523Z,97246.88
2022-11-24T10:31:39.680Z,97243.84
2022-11-24T10:37:01.803Z,97230.28
2022-11-24T10:42:33.956Z,97242.63
2022-11-24T10:47:39.026Z,97234.41
2022-11-24T10:52:47.554Z,97229.84
2022-11-24T10:57:51.880Z,97223.63
2022-11-24T11:03:21.360Z,97207.31
2022-11-24T11:08:27.958Z,97217.00
2022-11-24T11:13:31.855Z,97214.38
2022-11-24T11:18:36.698Z,97199.31
2022-11-24T11:23:41.044Z,97186.22
2022-11-24T11:31:15.228Z,97179.47
2022-11-24T11:34:29.856Z,97183.75
2022-11-24T11:39:38.010Z,97205.59
2022-11-24T11:44:53.128Z,97201.59
2022-11-24T11:49:58.041Z,97196.13
2022-11-24T11:55:46.548Z,97207.81
2022-11-24T12:01:16.246Z,97206.09
2022-11-24T12:06:48.521Z,97207.19
2022-11-24T12:12:10.355Z,97205.06
2022-11-24T12:17:31.875Z,97208.56
2022-11-24T12:22:55.615Z,97208.88
2022-11-24T12:28:30.714Z,97204.63
2022-11-24T12:34:00.968Z,97202.56
2022-11-24T12:39:34.472Z,97198.44
2022-11-24T12:44:47.399Z,97193.47
2022-11-24T12:50:12.360Z,97186.22
2022-11-24T12:55:22.328Z,97182.81
2022-11-24T13:00:28.809Z,97186.72
2022-11-24T13:05:44.327Z,97185.13
2022-11-24T13:10:55.886Z,97173.13
2022-11-24T13:21:41.670Z,97186.06
2022-11-24T13:26:54.357Z,97189.13
2022-11-24T13:32:09.993Z,97203.19
2022-11-24T13:37:28.899Z,97198.59
2022-11-24T13:42:57.067Z,97217.53
2022-11-24T13:48:02.003Z,97207.81
2022-11-24T13:53:18.747Z,97214.34
2022-11-24T13:58:29.255Z,97217.06
2022-11-24T14:04:28.160Z,97223.00
2022-11-24T14:09:35.683Z,97223.81
2022-11-24T14:14:39.633Z,97223.28
2022-11-24T14:19:45.644Z,97230.31
2022-11-24T14:24:54.722Z,97229.25
2022-11-24T14:30:10.362Z,97230.84
2022-11-24T14:35:29.040Z,97224.13
2022-11-24T14:40:41.628Z,97233.56
2022-11-24T14:45:54.263Z,97228.97
2022-11-24T14:51:20.159Z,97231.94
2022-11-24T14:56:33.286Z,97224.66
2022-11-24T15:01:36.942Z,97228.72
2022-11-24T15:06:42.476Z,97224.09
2022-11-24T15:11:46.269Z,97230.59
2022-11-24T15:16:49.755Z,97229.50
2022-11-24T15:21:53.181Z,97237.34
2022-11-24T15:27:00.957Z,97247.06
2022-11-24T15:32:14.396Z,97244.34
2022-11-24T15:37:17.931Z,97256.53
2022-11-24T15:42:21.896Z,97255.44
2022-11-24T15:47:26.586Z,97249.75
2022-11-24T15:52:30.900Z,97262.75
2022-11-24T15:57:35.273Z,97263.56
2022-11-24T16:02:38.676Z,97259.19
2022-11-24T16:07:42.292Z,97259.78
2022-11-24T16:12:45.674Z,97264.06
2022-11-24T16:17:49.106Z,97261.38
2022-11-24T16:22:52.417Z,97267.06
2022-11-24T16:27:55.861Z,97272.47
2022-11-24T16:33:05.560Z,97267.59
2022-11-24T16:38:16.685Z,97270.00
2022-11-24T16:43:20.402Z,97267.06
2022-11-24T16:48:24.490Z,97265.41
2022-11-24T16:53:27.974Z,97273.00
2022-11-24T16:58:31.527Z,97274.88
2022-11-24T17:03:35.658Z,97268.41
2022-11-24T17:08:41.158Z,97273.53
2022-11-24T17:13:46.801Z,97264.59
2022-11-24T17:18:52.119Z,97267.88
2022-11-24T17:23:59.488Z,97257.84
2022-11-24T17:29:03.830Z,97263.25
2022-11-24T17:34:12.233Z,97267.06
2022-11-24T17:39:19.125Z,97268.16
2022-11-24T17:44:30.609Z,97266.78
2022-11-24T17:49:34.021Z,97261.13
2022-11-24T17:54:46.239Z,97256.25
2022-11-24T17:59:50.625Z,97253.81
2022-11-24T18:04:55.292Z,97262.47
2022-11-24T18:09:58.697Z,97242.97
2022-11-24T18:15:04.836Z,97241.88
2022-11-24T18:20:09.865Z,97240.25
2022-11-24T18:25:13.429Z,97240.78
2022-11-24T18:30:18.370Z,97232.69
2022-11-24T18:35:25.247Z,97236.75
2022-11-24T18:40:28.627Z,97230.56
2022-11-24T18:45:32.446Z,97231.13
2022-11-24T18:50:36.023Z,97221.41
2022-11-24T18:55:39.448Z,97236.53
2022-11-24T19:00:43.002Z,97248.16
2022-11-24T19:05:46.778Z,97233.66
2022-11-24T19:10:50.241Z,97235.69
2022-11-24T19:15:53.547Z,97231.59
2022-11-24T19:20:57.232Z,97221.84
2022-11-24T19:26:04.925Z,97222.06
2022-11-24T19:31:11.401Z,97207.75
2022-11-24T19:36:20.881Z,97216.09
2022-11-24T19:41:27.335Z,97203.97
2022-11-24T19:46:31.163Z,97211.47
2022-11-24T19:51:37.440Z,97214.13
2022-11-24T19:56:41.425Z,97226.66
2022-11-24T20:01:46.395Z,97209.63
2022-11-24T20:06:49.935Z,97207.41
2022-11-24T20:11:53.145Z,97204.47
2022-11-24T20:16:57.204Z,97195.31
2022-11-24T20:22:00.957Z,97207.84
2022-11-24T20:27:04.554Z,97189.38
2022-11-24T20:32:08.144Z,97191.78
2022-11-24T20:37:11.616Z,97192.38
2022-11-24T20:42:16.198Z,97184.63
2022-11-24T20:47:19.713Z,97196.00
2022-11-24T20:52:23.648Z,97202.72
2022-11-24T20:57:27.034Z,97199.75
2022-11-24T21:02:31.876Z,97192.72
2022-11-24T21:07:38.746Z,97190.25
2022-11-24T21:12:42.070Z,97194.19
2022-11-24T21:17:45.392Z,97180.41
2022-11-24T21:22:48.512Z,97182.16
2022-11-24T21:27:52.792Z,97191.22
2022-11-24T21:33:00.119Z,97187.56
2022-11-24T21:38:04.114Z,97190.84
2022-11-24T21:43:08.383Z,97182.72
2022-11-24T21:48:11.727Z,97184.84
2022-11-24T21:53:14.869Z,97182.06
2022-11-24T21:58:17.886Z,97167.75
2022-11-24T22:03:23.692Z,97168.25
2022-11-24T22:08:27.682Z,97175.25
2022-11-24T22:13:31.252Z,97169.63
2022-11-24T22:18:36.684Z,97168.25
2022-11-24T22:23:40.799Z,97166.88
2022-11-24T22:28:45.366Z,97170.63
2022-11-24T22:33:49.936Z,97170.63
2022-11-24T22:39:01.187Z,97174.88
2022-11-24T22:44:05.597Z,97164.94
2022-11-24T22:49:10.331Z,97163.34
2022-11-24T22:54:13.829Z,97167.81
2022-11-24T22:59:17.222Z,97158.44
2022-11-24T23:04:20.629Z,97157.13
2022-11-24T23:09:25.412Z,97150.19
2022-11-24T23:14:33.443Z,97154.28
2022-11-24T23:19:37.149Z,97145.28
2022-11-24T23:24:40.626Z,97148.31
2022-11-24T23:29:43.939Z,97152.19
2022-11-24T23:34:47.729Z,97146.88
2022-11-24T23:39:51.036Z,97137.25
2022-11-24T23:44:54.138Z,97134.06
2022-11-24T23:49:57.142Z,97135.78
2022-11-24T23:55:03.378Z,97132.16
